createdAt,value
2022-11-09T00:00:46.894Z,989.22
2022-11-09T00:01:46.885Z,989.34
2022-11-09T00:02:46.873Z,989.33
2022-11-09T00:03:46.859Z,989.32
2022-11-09T00:04:46.865Z,989.32
2022-11-09T00:06:46.916Z,989.38
2022-11-09T00:07:46.806Z,989.40
2022-11-09T00:08:46.794Z,989.42
2022-11-09T00:09:46.877Z,989.38
2022-11-09T00:10:46.769Z,989.41
2022-11-09T00:11:46.760Z,989.43
2022-11-09T00:12:46.775Z,989.43
2022-11-09T00:13:46.732Z,989.45
2022-11-09T00:14:46.716Z,989.48
2022-11-09T00:15:46.708Z,989.43
2022-11-09T00:17:46.683Z,989.43
2022-11-09T00:18:46.664Z,989.43
2022-11-09T00:19:46.654Z,989.41
2022-11-09T00:20:48.329Z,989.47
2022-11-09T00:21:46.628Z,989.44
2022-11-09T00:22:46.615Z,989.49
2022-11-09T00:23:46.605Z,989.50
2022-11-09T00:24:46.589Z,989.53
2022-11-09T00:25:46.577Z,989.52
2022-11-09T00:26:46.566Z,989.55
2022-11-09T00:28:46.544Z,989.51
2022-11-09T00:29:46.529Z,989.55
2022-11-09T00:30:46.519Z,989.57
2022-11-09T00:31:46.502Z,989.58
2022-11-09T00:32:46.486Z,989.58
2022-11-09T00:33:46.475Z,989.53
2022-11-09T00:34:46.463Z,989.54
2022-11-09T00:35:46.450Z,989.54
2022-11-09T00:36:46.518Z,989.54
2022-11-09T00:37:46.534Z,989.45
2022-11-09T00:39:46.400Z,989.45
2022-11-09T00:40:46.388Z,989.49
2022-11-09T00:41:46.374Z,989.54
2022-11-09T00:42:46.362Z,989.48
2022-11-09T00:43:46.348Z,989.51
2022-11-09T00:44:46.337Z,989.52
2022-11-09T00:45:46.324Z,989.51
2022-11-09T00:46:46.313Z,989.54
2022-11-09T00:47:46.297Z,989.55
2022-11-09T00:48:46.285Z,989.64
2022-11-09T00:50:46.261Z,989.47
2022-11-09T00:51:46.248Z,989.54
2022-11-09T00:52:46.259Z,989.61
2022-11-09T00:53:46.220Z,989.57
2022-11-09T00:54:46.210Z,989.58
2022-11-09T00:55:46.197Z,989.60
2022-11-09T00:56:46.186Z,989.60
2022-11-09T00:57:46.171Z,989.57
2022-11-09T00:58:46.160Z,989.59
2022-11-09T00:59:46.146Z,989.61
2022-11-09T01:01:46.132Z,989.65
2022-11-09T01:02:46.110Z,989.68
2022-11-09T01:03:46.094Z,989.72
2022-11-09T01:04:46.084Z,989.67
2022-11-09T01:05:46.069Z,989.68
2022-11-09T01:06:46.086Z,989.63
2022-11-09T01:07:46.043Z,989.75
2022-11-09T01:08:46.053Z,989.62
2022-11-09T01:09:46.020Z,989.66
2022-11-09T01:10:46.006Z,989.63
2022-11-09T01:12:45.982Z,989.60
2022-11-09T01:13:45.969Z,989.61
2022-11-09T01:14:45.956Z,989.56
2022-11-09T01:15:45.943Z,989.51
2022-11-09T01:16:45.931Z,989.51
2022-11-09T01:17:45.916Z,989.49
2022-11-09T01:18:45.905Z,989.53
2022-11-09T01:19:45.891Z,989.57
2022-11-09T01:20:45.881Z,989.59
2022-11-09T01:21:45.865Z,989.57
2022-11-09T01:23:45.839Z,989.64
2022-11-09T01:24:45.850Z,989.62
2022-11-09T01:25:45.815Z,989.59
2022-11-09T01:26:45.803Z,989.53
2022-11-09T01:27:45.789Z,989.56
2022-11-09T01:28:45.776Z,989.62
2022-11-09T01:29:45.763Z,989.55
2022-11-09T01:30:45.754Z,989.58
2022-11-09T01:31:45.737Z,989.61
2022-11-09T01:32:45.726Z,989.59
2022-11-09T01:34:45.700Z,989.59
2022-11-09T01:35:45.687Z,989.57
2022-11-09T01:36:45.674Z,989.56
2022-11-09T01:37:45.669Z,989.63
2022-11-09T01:38:45.654Z,989.62
2022-11-09T01:39:45.638Z,989.61
2022-11-09T01:40:45.645Z,989.64
2022-11-09T01:41:45.612Z,989.65
2022-11-09T01:42:45.598Z,989.76
2022-11-09T01:43:45.584Z,989.67
2022-11-09T01:45:45.566Z,989.63
2022-11-09T01:46:45.548Z,989.65
2022-11-09T01:47:45.533Z,989.60
2022-11-09T01:48:45.523Z,989.59
2022-11-09T01:49:45.512Z,989.62
2022-11-09T01:50:45.495Z,989.64
2022-11-09T01:51:45.482Z,989.62
2022-11-09T01:52:45.472Z,989.61
2022-11-09T01:53:45.455Z,989.60
2022-11-09T01:54:45.445Z,989.52
2022-11-09T01:56:45.444Z,989.52
2022-11-09T01:57:45.406Z,989.51
2022-11-09T01:58:45.397Z,989.50
2022-11-09T01:59:45.381Z,989.46
2022-11-09T02:00:45.419Z,989.48
2022-11-09T02:01:45.490Z,989.45
2022-11-09T02:02:45.341Z,989.42
2022-11-09T02:03:45.328Z,989.42
2022-11-09T02:04:45.321Z,989.40
2022-11-09T02:05:45.302Z,989.32
2022-11-09T02:07:45.277Z,989.30
2022-11-09T02:08:45.266Z,989.27
2022-11-09T02:09:45.251Z,989.21
2022-11-09T02:10:45.242Z,989.20
2022-11-09T02:11:45.227Z,989.12
2022-11-09T02:12:45.236Z,989.13
2022-11-09T02:13:45.200Z,989.06
2022-11-09T02:14:45.191Z,989.05
2022-11-09T02:15:46.055Z,989.04
2022-11-09T02:16:45.162Z,989.02
2022-11-09T02:18:45.138Z,989.07
2022-11-09T02:19:45.123Z,989.25
2022-11-09T02:20:45.112Z,989.26
2022-11-09T02:21:45.099Z,989.22
2022-11-09T02:22:45.088Z,989.26
2022-11-09T02:23:45.075Z,989.24
2022-11-09T02:24:45.062Z,989.20
2022-11-09T02:25:45.048Z,989.24
2022-11-09T02:26:45.037Z,989.27
2022-11-09T02:27:45.025Z,989.20
2022-11-09T02:29:44.998Z,989.33
2022-11-09T02:30:44.984Z,989.33
2022-11-09T02:31:44.970Z,989.39
2022-11-09T02:32:44.960Z,989.37
2022-11-09T02:33:44.954Z,989.40
2022-11-09T02:34:44.934Z,989.39
2022-11-09T02:35:44.922Z,989.39
2022-11-09T02:36:44.910Z,989.43
2022-11-09T02:37:44.895Z,989.34
2022-11-09T02:38:44.887Z,989.28
2022-11-09T02:40:44.858Z,989.24
2022-11-09T02:41:44.845Z,989.26
2022-11-09T02:42:44.832Z,989.28
2022-11-09T02:43:44.818Z,989.42
2022-11-09T02:44:44.831Z,989.48
2022-11-09T02:45:44.792Z,989.48
2022-11-09T02:46:44.780Z,989.41
2022-11-09T02:47:44.768Z,989.37
2022-11-09T02:48:44.756Z,989.38
2022-11-09T02:49:44.743Z,989.18
2022-11-09T02:51:44.718Z,989.27
2022-11-09T02:52:44.705Z,989.19
2022-11-09T02:53:44.694Z,989.22
2022-11-09T02:54:44.681Z,989.18
2022-11-09T02:55:44.665Z,989.20
2022-11-09T02:56:44.653Z,989.25
2022-11-09T02:57:44.641Z,989.20
2022-11-09T02:58:44.631Z,989.26
2022-11-09T02:59:44.617Z,989.31
2022-11-09T03:00:44.690Z,989.25
2022-11-09T03:02:44.580Z,989.31
2022-11-09T03:03:44.567Z,989.41
2022-11-09T03:04:44.552Z,989.42
2022-11-09T03:05:44.544Z,989.41
2022-11-09T03:06:44.596Z,989.41
2022-11-09T03:07:44.518Z,989.44
2022-11-09T03:08:44.501Z,989.44
2022-11-09T03:09:44.488Z,989.47
2022-11-09T03:10:44.477Z,989.51
2022-11-09T03:11:44.461Z,989.51
2022-11-09T03:13:44.439Z,989.47
2022-11-09T03:14:44.427Z,989.46
2022-11-09T03:15:44.411Z,989.50
2022-11-09T03:16:50.063Z,989.57
2022-11-09T03:17:46.388Z,989.56
2022-11-09T03:18:44.374Z,989.58
2022-11-09T03:19:44.360Z,989.52
2022-11-09T03:20:44.350Z,989.52
2022-11-09T03:21:44.335Z,989.54
2022-11-09T03:22:44.323Z,989.49
2022-11-09T03:24:44.298Z,989.54
2022-11-09T03:25:44.283Z,989.64
2022-11-09T03:26:44.276Z,989.63
2022-11-09T03:27:44.259Z,989.61
2022-11-09T03:28:44.249Z,989.63
2022-11-09T03:29:44.233Z,989.58
2022-11-09T03:30:44.220Z,989.63
2022-11-09T03:31:44.206Z,989.66
2022-11-09T03:32:49.468Z,989.72
2022-11-09T03:34:44.170Z,989.64
2022-11-09T03:35:44.155Z,989.63
2022-11-09T03:36:44.146Z,989.59
2022-11-09T03:37:44.235Z,989.62
2022-11-09T03:38:44.117Z,989.56
2022-11-09T03:39:44.104Z,989.65
2022-11-09T03:40:44.094Z,989.61
2022-11-09T03:41:44.079Z,989.68
2022-11-09T03:42:44.067Z,989.65
2022-11-09T03:43:44.052Z,989.62
2022-11-09T03:45:44.028Z,989.74
2022-11-09T03:46:44.017Z,989.69
2022-11-09T03:47:44.002Z,989.75
2022-11-09T03:48:44.014Z,989.68
2022-11-09T03:49:43.975Z,989.65
2022-11-09T03:50:43.966Z,989.67
2022-11-09T03:51:43.949Z,989.69
2022-11-09T03:52:43.939Z,989.71
2022-11-09T03:53:43.925Z,989.70
2022-11-09T03:54:43.917Z,989.83
2022-11-09T03:56:43.892Z,989.81
2022-11-09T03:57:43.873Z,989.80
2022-11-09T03:58:43.861Z,989.83
2022-11-09T03:59:43.852Z,989.82
2022-11-09T04:00:43.837Z,989.78
2022-11-09T04:01:43.895Z,989.79
2022-11-09T04:02:43.809Z,989.80
2022-11-09T04:03:43.795Z,989.77
2022-11-09T04:04:43.811Z,989.85
2022-11-09T04:05:43.771Z,989.86
2022-11-09T04:07:43.744Z,989.82
2022-11-09T04:08:48.390Z,989.83
2022-11-09T04:09:43.717Z,989.78
2022-11-09T04:10:43.709Z,989.82
2022-11-09T04:11:43.689Z,989.82
2022-11-09T04:12:43.681Z,989.76
2022-11-09T04:13:43.672Z,989.74
2022-11-09T04:14:43.655Z,989.76
2022-11-09T04:15:43.641Z,989.78
2022-11-09T04:16:43.631Z,989.80
2022-11-09T04:18:43.604Z,989.87
2022-11-09T04:19:43.590Z,989.85
2022-11-09T04:20:43.601Z,989.74
2022-11-09T04:21:43.564Z,989.74
2022-11-09T04:22:43.552Z,989.72
2022-11-09T04:23:43.537Z,989.69
2022-11-09T04:24:43.531Z,989.69
2022-11-09T04:25:43.518Z,989.64
2022-11-09T04:26:43.503Z,989.67
2022-11-09T04:27:43.488Z,989.68
2022-11-09T04:29:43.465Z,989.67
2022-11-09T04:30:43.453Z,989.66
2022-11-09T04:31:43.437Z,989.65
2022-11-09T04:32:43.426Z,989.66
2022-11-09T04:33:43.413Z,989.66
2022-11-09T04:34:43.400Z,989.56
2022-11-09T04:35:43.386Z,989.58
2022-11-09T04:36:43.397Z,989.53
2022-11-09T04:37:43.364Z,989.56
2022-11-09T04:38:43.350Z,989.57
2022-11-09T04:40:43.324Z,989.51
2022-11-09T04:41:43.310Z,989.56
2022-11-09T04:42:43.298Z,989.62
2022-11-09T04:43:43.284Z,989.59
2022-11-09T04:44:43.273Z,989.54
2022-11-09T04:45:43.260Z,989.49
2022-11-09T04:46:43.247Z,989.42
2022-11-09T04:47:43.232Z,989.46
2022-11-09T04:48:43.223Z,989.52
2022-11-09T04:49:43.208Z,989.49
2022-11-09T04:51:43.186Z,989.54
2022-11-09T04:52:43.191Z,989.55
2022-11-09T04:53:43.158Z,989.53
2022-11-09T04:54:43.146Z,989.53
2022-11-09T04:55:43.135Z,989.61
2022-11-09T04:56:43.119Z,989.60
2022-11-09T04:57:43.107Z,989.55
2022-11-09T04:58:43.094Z,989.57
2022-11-09T04:59:43.082Z,989.54
2022-11-09T05:00:43.069Z,989.57
2022-11-09T05:02:43.043Z,989.61
2022-11-09T05:03:43.135Z,989.56
2022-11-09T05:04:43.018Z,989.58
2022-11-09T05:05:48.178Z,989.53
2022-11-09T05:06:43.086Z,989.51
2022-11-09T05:07:42.981Z,989.50
2022-11-09T05:08:42.990Z,989.52
2022-11-09T05:09:42.957Z,989.53
2022-11-09T05:10:42.946Z,989.49
2022-11-09T05:11:42.938Z,989.49
2022-11-09T05:13:42.906Z,989.44
2022-11-09T05:14:42.891Z,989.44
2022-11-09T05:15:42.880Z,989.41
2022-11-09T05:16:42.870Z,989.44
2022-11-09T05:17:42.854Z,989.33
2022-11-09T05:18:42.839Z,989.35
2022-11-09T05:19:42.830Z,989.36
2022-11-09T05:20:42.825Z,989.39
2022-11-09T05:21:42.803Z,989.43
2022-11-09T05:22:42.794Z,989.40
2022-11-09T05:24:42.787Z,989.41
2022-11-09T05:25:42.755Z,989.43
2022-11-09T05:26:42.740Z,989.42
2022-11-09T05:27:42.728Z,989.45
2022-11-09T05:28:42.714Z,989.46
2022-11-09T05:29:42.707Z,989.51
2022-11-09T05:30:42.688Z,989.51
2022-11-09T05:31:45.509Z,989.48
2022-11-09T05:32:42.663Z,989.45
2022-11-09T05:33:42.652Z,989.47
2022-11-09T05:35:42.628Z,989.48
2022-11-09T05:36:42.612Z,989.40
2022-11-09T05:37:42.600Z,989.51
2022-11-09T05:38:42.589Z,989.50
2022-11-09T05:39:42.574Z,989.56
2022-11-09T05:40:42.583Z,989.58
2022-11-09T05:41:42.552Z,989.64
2022-11-09T05:42:42.536Z,989.63
2022-11-09T05:43:42.526Z,989.69
2022-11-09T05:44:42.514Z,989.68
2022-11-09T05:46:42.484Z,989.77
2022-11-09T05:47:42.474Z,989.70
2022-11-09T05:48:42.460Z,989.70
2022-11-09T05:49:42.447Z,989.72
2022-11-09T05:50:42.627Z,989.67
2022-11-09T05:51:42.422Z,989.64
2022-11-09T05:52:42.409Z,989.59
2022-11-09T05:53:46.425Z,989.56
2022-11-09T05:54:42.386Z,989.60
2022-11-09T05:55:42.629Z,989.59
2022-11-09T05:57:42.346Z,989.64
2022-11-09T05:58:42.347Z,989.63
2022-11-09T05:59:42.321Z,989.66
2022-11-09T06:00:42.495Z,989.68
2022-11-09T06:01:42.340Z,989.68
2022-11-09T06:02:42.283Z,989.71
2022-11-09T06:03:42.274Z,989.72
2022-11-09T06:04:42.257Z,989.68
2022-11-09T06:05:42.249Z,989.69
2022-11-09T06:06:42.315Z,989.68
2022-11-09T06:08:42.223Z,989.67
2022-11-09T06:09:42.195Z,989.60
2022-11-09T06:10:42.201Z,989.68
2022-11-09T06:11:42.171Z,989.72
2022-11-09T06:12:42.185Z,989.71
2022-11-09T06:13:42.146Z,989.77
2022-11-09T06:14:42.127Z,989.74
2022-11-09T06:15:42.118Z,989.84
2022-11-09T06:16:42.105Z,989.78
2022-11-09T06:17:42.100Z,989.82
2022-11-09T06:19:42.066Z,989.79
2022-11-09T06:20:42.053Z,989.75
2022-11-09T06:21:42.042Z,989.79
2022-11-09T06:22:42.029Z,989.78
2022-11-09T06:23:42.017Z,989.79
2022-11-09T06:24:42.002Z,989.87
2022-11-09T06:25:41.993Z,989.83
2022-11-09T06:26:41.978Z,989.90
2022-11-09T06:27:41.965Z,989.89
2022-11-09T06:28:41.974Z,989.88
2022-11-09T06:30:41.930Z,989.92
2022-11-09T06:31:41.916Z,989.94
2022-11-09T06:32:41.903Z,989.95
2022-11-09T06:33:41.890Z,989.96
2022-11-09T06:34:41.875Z,990.08
2022-11-09T06:35:41.863Z,990.04
2022-11-09T06:36:41.850Z,989.98
2022-11-09T06:37:41.838Z,990.05
2022-11-09T06:38:41.830Z,990.01
2022-11-09T06:39:41.811Z,989.85
2022-11-09T06:41:46.203Z,989.92
2022-11-09T06:42:41.932Z,989.91
2022-11-09T06:43:41.762Z,989.90
2022-11-09T06:44:41.784Z,989.95
2022-11-09T06:45:41.738Z,989.99
2022-11-09T06:46:41.726Z,990.01
2022-11-09T06:47:41.710Z,989.97
2022-11-09T06:48:41.698Z,989.98
2022-11-09T06:49:41.685Z,990.04
2022-11-09T06:50:41.670Z,990.04
2022-11-09T06:52:41.647Z,989.97
2022-11-09T06:53:41.635Z,990.03
2022-11-09T06:54:41.622Z,990.03
2022-11-09T06:55:47.181Z,990.02
2022-11-09T06:56:41.595Z,989.99
2022-11-09T06:57:41.586Z,990.04
2022-11-09T06:58:41.573Z,990.03
2022-11-09T06:59:41.560Z,990.04
2022-11-09T07:00:41.568Z,990.08
2022-11-09T07:01:41.582Z,990.10
2022-11-09T07:03:41.509Z,990.17
2022-11-09T07:04:41.494Z,990.16
2022-11-09T07:05:41.485Z,990.18
2022-11-09T07:06:41.553Z,990.18
2022-11-09T07:07:41.459Z,990.19
2022-11-09T07:08:41.448Z,990.24
2022-11-09T07:09:41.431Z,990.25
2022-11-09T07:10:41.417Z,990.28
2022-11-09T07:11:41.407Z,990.31
2022-11-09T07:12:41.400Z,990.31
2022-11-09T07:14:41.367Z,990.43
2022-11-09T07:15:41.354Z,990.39
2022-11-09T07:16:41.362Z,990.41
2022-11-09T07:17:41.332Z,990.37
2022-11-09T07:18:41.313Z,990.42
2022-11-09T07:19:41.302Z,990.41
2022-11-09T07:20:41.286Z,990.42
2022-11-09T07:21:41.281Z,990.43
2022-11-09T07:22:41.261Z,990.38
2022-11-09T07:23:41.254Z,990.38
2022-11-09T07:25:41.224Z,990.36
2022-11-09T07:26:41.209Z,990.42
2022-11-09T07:27:41.200Z,990.42
2022-11-09T07:28:41.184Z,990.43
2022-11-09T07:29:41.172Z,990.39
2022-11-09T07:30:41.158Z,990.41
2022-11-09T07:31:41.148Z,990.36
2022-11-09T07:33:07.521Z,990.41
2022-11-09T07:33:43.120Z,990.40
2022-11-09T07:34:41.109Z,990.43
2022-11-09T07:36:41.083Z,990.49
2022-11-09T07:37:41.078Z,990.47
2022-11-09T07:38:41.061Z,990.51
2022-11-09T07:39:41.047Z,990.50
2022-11-09T07:40:41.031Z,990.49
2022-11-09T07:41:41.018Z,990.45
2022-11-09T07:42:41.002Z,990.50
2022-11-09T07:43:40.995Z,990.51
2022-11-09T07:44:40.978Z,990.42
2022-11-09T07:45:40.966Z,990.42
2022-11-09T07:47:40.945Z,990.47
2022-11-09T07:48:40.948Z,990.47
2022-11-09T07:49:40.914Z,990.47
2022-11-09T07:50:40.900Z,990.42
2022-11-09T07:51:40.887Z,990.48
2022-11-09T07:52:40.872Z,990.49
2022-11-09T07:53:40.880Z,990.49
2022-11-09T07:54:40.848Z,990.49
2022-11-09T07:55:40.834Z,990.47
2022-11-09T07:56:40.825Z,990.49
2022-11-09T07:58:40.793Z,990.50
2022-11-09T07:59:40.782Z,990.53
2022-11-09T08:00:40.770Z,990.57
2022-11-09T08:01:40.822Z,990.55
2022-11-09T08:02:40.740Z,990.62
2022-11-09T08:03:40.730Z,990.61
2022-11-09T08:04:40.738Z,990.61
2022-11-09T08:05:40.700Z,990.64
2022-11-09T08:06:40.751Z,990.62
2022-11-09T08:07:40.675Z,990.65
2022-11-09T08:09:40.648Z,990.70
2022-11-09T08:10:40.636Z,990.68
2022-11-09T08:11:40.621Z,990.71
2022-11-09T08:12:40.608Z,990.74
2022-11-09T08:13:40.595Z,990.74
2022-11-09T08:14:40.582Z,990.79
2022-11-09T08:15:40.569Z,990.80
2022-11-09T08:16:40.555Z,990.75
2022-11-09T08:17:40.542Z,990.75
2022-11-09T08:18:40.527Z,990.73
2022-11-09T08:20:40.531Z,990.68
2022-11-09T08:21:40.490Z,990.66
2022-11-09T08:22:40.474Z,990.83
2022-11-09T08:23:40.463Z,990.85
2022-11-09T08:24:40.448Z,990.83
2022-11-09T08:25:40.438Z,990.55
2022-11-09T08:26:40.425Z,990.75
2022-11-09T08:27:40.411Z,990.72
2022-11-09T08:28:40.396Z,990.70
2022-11-09T08:29:40.385Z,990.63
2022-11-09T08:31:40.359Z,990.59
2022-11-09T08:32:40.348Z,990.64
2022-11-09T08:33:40.335Z,990.63
2022-11-09T08:34:40.322Z,990.57
2022-11-09T08:35:40.312Z,990.43
2022-11-09T08:36:40.526Z,990.48
2022-11-09T08:37:40.284Z,990.45
2022-11-09T08:38:40.269Z,990.37
2022-11-09T08:39:40.258Z,990.44
2022-11-09T08:40:40.246Z,990.41
2022-11-09T08:42:40.219Z,990.77
2022-11-09T08:43:40.208Z,990.62
2022-11-09T08:44:40.417Z,990.69
2022-11-09T08:45:40.182Z,990.63
2022-11-09T08:46:41.595Z,990.66
2022-11-09T08:47:40.207Z,990.69
2022-11-09T08:48:40.143Z,990.62
2022-11-09T08:49:40.132Z,990.69
2022-11-09T08:50:40.122Z,990.68
2022-11-09T08:51:40.108Z,990.65
2022-11-09T08:53:40.082Z,990.70
2022-11-09T08:54:40.069Z,990.65
2022-11-09T08:55:40.058Z,990.68
2022-11-09T08:56:40.042Z,990.66
2022-11-09T08:57:40.235Z,990.69
2022-11-09T08:58:40.020Z,990.68
2022-11-09T08:59:40.008Z,990.45
2022-11-09T09:00:39.996Z,990.40
2022-11-09T09:01:40.115Z,990.41
2022-11-09T09:02:39.970Z,990.43
2022-11-09T09:04:39.946Z,990.64
2022-11-09T09:05:39.934Z,990.65
2022-11-09T09:06:40.003Z,990.64
2022-11-09T09:07:39.908Z,990.64
2022-11-09T09:08:39.926Z,990.48
2022-11-09T09:09:39.883Z,990.46
2022-11-09T09:10:39.874Z,990.42
2022-11-09T09:11:39.860Z,990.43
2022-11-09T09:12:39.849Z,990.66
2022-11-09T09:13:43.409Z,990.62
2022-11-09T09:15:39.811Z,990.61
2022-11-09T09:16:39.802Z,990.39
2022-11-09T09:17:39.786Z,990.55
2022-11-09T09:18:39.786Z,990.56
2022-11-09T09:19:39.760Z,990.52
2022-11-09T09:20:39.749Z,990.56
2022-11-09T09:21:39.734Z,990.67
2022-11-09T09:22:39.725Z,990.63
2022-11-09T09:23:39.710Z,990.47
2022-11-09T09:24:39.725Z,990.45
2022-11-09T09:26:39.685Z,990.57
2022-11-09T09:27:39.660Z,990.55
2022-11-09T09:28:39.648Z,990.57
2022-11-09T09:29:39.635Z,990.62
2022-11-09T09:30:39.622Z,990.60
2022-11-09T09:31:39.611Z,990.54
2022-11-09T09:32:39.596Z,990.57
2022-11-09T09:33:39.584Z,990.55
2022-11-09T09:34:39.574Z,990.57
2022-11-09T09:35:39.558Z,990.59
2022-11-09T09:37:39.533Z,990.62
2022-11-09T09:38:39.519Z,990.75
2022-11-09T09:39:39.504Z,990.68
2022-11-09T09:40:39.513Z,990.71
2022-11-09T09:41:39.478Z,990.76
2022-11-09T09:42:39.467Z,990.69
2022-11-09T09:43:42.957Z,990.80
2022-11-09T09:44:39.444Z,990.78
2022-11-09T09:45:39.428Z,990.77
2022-11-09T09:46:39.417Z,990.84
2022-11-09T09:48:39.393Z,990.80
2022-11-09T09:49:39.394Z,990.86
2022-11-09T09:50:39.369Z,990.82
2022-11-09T09:51:39.350Z,990.87
2022-11-09T09:52:39.341Z,990.91
2022-11-09T09:53:39.325Z,990.83
2022-11-09T09:54:39.319Z,990.93
2022-11-09T09:55:39.301Z,990.66
2022-11-09T09:56:39.315Z,990.74
2022-11-09T09:57:42.108Z,990.74
2022-11-09T09:59:39.251Z,990.72
2022-11-09T10:00:39.242Z,990.80
2022-11-09T10:01:39.224Z,990.96
2022-11-09T10:02:39.218Z,991.00
2022-11-09T10:03:39.198Z,990.88
2022-11-09T10:04:39.223Z,990.62
2022-11-09T10:05:39.173Z,990.70
2022-11-09T10:06:39.227Z,990.68
2022-11-09T10:07:39.148Z,990.78
2022-11-09T10:08:39.157Z,990.89
2022-11-09T10:10:39.110Z,990.86
2022-11-09T10:11:39.096Z,990.93
2022-11-09T10:12:39.111Z,991.02
2022-11-09T10:13:39.069Z,991.01
2022-11-09T10:14:39.063Z,990.89
2022-11-09T10:15:39.045Z,990.93
2022-11-09T10:16:39.034Z,990.99
2022-11-09T10:17:39.020Z,990.93
2022-11-09T10:18:39.010Z,991.00
2022-11-09T10:19:39.002Z,990.94
2022-11-09T10:21:38.969Z,990.79
2022-11-09T10:22:38.960Z,990.77
2022-11-09T10:23:38.946Z,990.64
2022-11-09T10:24:48.754Z,990.60
2022-11-09T10:26:03.202Z,990.69
2022-11-09T10:26:40.912Z,990.65
2022-11-09T10:27:38.896Z,990.69
2022-11-09T10:29:09.312Z,990.65
2022-11-09T10:29:40.869Z,990.74
2022-11-09T10:30:38.860Z,990.76
2022-11-09T10:32:38.833Z,990.63
2022-11-09T10:33:38.820Z,990.72
2022-11-09T10:34:38.809Z,990.70
2022-11-09T10:35:38.803Z,990.82
2022-11-09T10:36:38.784Z,990.77
2022-11-09T10:37:38.772Z,990.81
2022-11-09T10:38:38.759Z,990.78
2022-11-09T10:39:38.754Z,990.78
2022-11-09T10:40:38.730Z,990.83
2022-11-09T10:41:38.717Z,990.79
2022-11-09T10:43:38.691Z,990.78
2022-11-09T10:44:38.702Z,990.78
2022-11-09T10:45:38.667Z,990.75
2022-11-09T10:46:38.655Z,990.86
2022-11-09T10:47:38.643Z,990.79
2022-11-09T10:48:38.630Z,990.97
2022-11-09T10:49:38.612Z,990.94
2022-11-09T10:50:38.601Z,990.93
2022-11-09T10:51:38.589Z,990.97
2022-11-09T10:52:41.862Z,990.95
2022-11-09T10:54:38.554Z,990.99
2022-11-09T10:55:38.538Z,990.91
2022-11-09T10:57:00.680Z,991.00
2022-11-09T10:57:40.510Z,990.98
2022-11-09T10:58:38.497Z,990.98
2022-11-09T10:59:38.486Z,990.96
2022-11-09T11:00:38.507Z,990.95
2022-11-09T11:01:38.557Z,990.95
2022-11-09T11:02:38.447Z,990.96
2022-11-09T11:03:38.432Z,990.97
2022-11-09T11:05:38.407Z,990.97
2022-11-09T11:06:38.448Z,990.99
2022-11-09T11:07:38.382Z,990.87
2022-11-09T11:08:38.372Z,990.89
2022-11-09T11:09:38.361Z,991.00
2022-11-09T11:10:38.345Z,990.96
2022-11-09T11:11:38.440Z,990.99
2022-11-09T11:12:38.320Z,990.97
2022-11-09T11:13:38.309Z,990.94
2022-11-09T11:14:38.292Z,991.02
2022-11-09T11:16:38.298Z,991.05
2022-11-09T11:17:38.253Z,991.01
2022-11-09T11:18:38.242Z,991.04
2022-11-09T11:19:38.229Z,991.08
2022-11-09T11:20:38.217Z,991.04
2022-11-09T11:21:38.200Z,990.98
2022-11-09T11:22:38.189Z,991.05
2022-11-09T11:23:38.175Z,991.07
2022-11-09T11:24:38.164Z,991.15
2022-11-09T11:25:38.151Z,991.06
2022-11-09T11:27:38.124Z,991.13
2022-11-09T11:28:38.111Z,991.14
2022-11-09T11:29:38.102Z,991.04
2022-11-09T11:30:38.087Z,991.01
2022-11-09T11:31:38.070Z,991.06
2022-11-09T11:32:38.191Z,991.04
2022-11-09T11:33:38.045Z,991.02
2022-11-09T11:34:58.945Z,990.95
2022-11-09T11:35:40.021Z,990.96
2022-11-09T11:36:38.010Z,991.01
2022-11-09T11:38:37.986Z,990.90
2022-11-09T11:39:37.968Z,990.87
2022-11-09T11:40:37.957Z,990.89
2022-11-09T11:41:37.941Z,990.88
2022-11-09T11:42:37.931Z,990.88
2022-11-09T11:43:37.915Z,990.92
2022-11-09T11:44:37.907Z,990.87
2022-11-09T11:45:40.989Z,990.85
2022-11-09T11:46:37.882Z,990.93
2022-11-09T11:47:37.866Z,990.98
2022-11-09T11:49:37.841Z,990.87
2022-11-09T11:50:37.828Z,990.93
2022-11-09T11:51:37.815Z,990.90
2022-11-09T11:52:37.806Z,990.90
2022-11-09T11:53:43.064Z,990.93
2022-11-09T11:54:37.778Z,990.91
2022-11-09T11:55:37.765Z,990.98
2022-11-09T11:56:37.753Z,990.94
2022-11-09T11:57:37.739Z,990.97
2022-11-09T11:58:37.732Z,991.01
2022-11-09T12:00:37.703Z,991.02
2022-11-09T12:01:37.697Z,991.05
2022-11-09T12:02:37.765Z,991.10
2022-11-09T12:03:37.661Z,991.08
2022-11-09T12:04:37.678Z,991.03
2022-11-09T12:05:37.637Z,991.03
2022-11-09T12:06:39.542Z,990.97
2022-11-09T12:07:37.610Z,991.02
2022-11-09T12:08:37.598Z,991.04
2022-11-09T12:09:37.585Z,991.03
2022-11-09T12:11:37.558Z,991.05
2022-11-09T12:12:37.547Z,991.10
2022-11-09T12:13:37.533Z,991.05
2022-11-09T12:14:37.522Z,991.07
2022-11-09T12:15:37.505Z,991.14
2022-11-09T12:16:37.495Z,991.21
2022-11-09T12:17:37.479Z,991.18
2022-11-09T12:18:37.470Z,991.19
2022-11-09T12:19:37.453Z,991.21
2022-11-09T12:20:37.470Z,991.15
2022-11-09T12:22:37.416Z,991.24
2022-11-09T12:23:37.423Z,991.30
2022-11-09T12:24:37.390Z,991.37
2022-11-09T12:25:37.376Z,991.27
2022-11-09T12:26:37.366Z,991.32
2022-11-09T12:27:37.373Z,991.35
2022-11-09T12:28:37.339Z,991.26
2022-11-09T12:29:37.329Z,991.21
2022-11-09T12:30:37.312Z,991.23
2022-11-09T12:31:37.309Z,991.34
2022-11-09T12:33:41.992Z,991.34
2022-11-09T12:34:37.261Z,991.26
2022-11-09T12:35:37.266Z,991.29
2022-11-09T12:36:37.259Z,991.23
2022-11-09T12:37:37.220Z,991.27
2022-11-09T12:38:37.207Z,991.30
2022-11-09T12:39:37.192Z,991.32
2022-11-09T12:40:37.182Z,991.33
2022-11-09T12:41:37.167Z,991.31
2022-11-09T12:42:37.155Z,991.34
2022-11-09T12:44:37.129Z,991.37
2022-11-09T12:45:37.114Z,991.34
2022-11-09T12:46:37.108Z,991.28
2022-11-09T12:47:37.087Z,991.33
2022-11-09T12:48:37.082Z,991.35
2022-11-09T12:49:37.061Z,991.32
2022-11-09T12:50:37.050Z,991.36
2022-11-09T12:51:37.038Z,991.29
2022-11-09T12:52:37.055Z,991.25
2022-11-09T12:53:37.010Z,991.27
2022-11-09T12:55:36.984Z,991.29
2022-11-09T12:56:36.973Z,991.31
2022-11-09T12:57:36.959Z,991.23
2022-11-09T12:58:36.947Z,991.25
2022-11-09T12:59:36.933Z,991.24
2022-11-09T13:00:36.921Z,991.17
2022-11-09T13:01:36.969Z,991.24
2022-11-09T13:02:36.896Z,991.23
2022-11-09T13:03:36.959Z,991.27
2022-11-09T13:04:36.869Z,991.26
2022-11-09T13:06:36.968Z,991.23
2022-11-09T13:07:36.829Z,991.24
2022-11-09T13:08:36.843Z,991.26
2022-11-09T13:09:44.786Z,991.27
2022-11-09T13:10:36.792Z,991.27
2022-11-09T13:11:36.779Z,991.25
2022-11-09T13:12:36.764Z,991.21
2022-11-09T13:13:36.752Z,991.24
2022-11-09T13:14:36.742Z,991.21
2022-11-09T13:15:36.726Z,991.24
2022-11-09T13:17:36.700Z,991.29
2022-11-09T13:18:40.411Z,991.25
2022-11-09T13:19:36.685Z,991.21
2022-11-09T13:20:58.424Z,991.26
2022-11-09T13:21:38.649Z,991.19
2022-11-09T13:22:36.633Z,991.25
2022-11-09T13:23:59.375Z,991.18
2022-11-09T13:24:38.633Z,991.18
2022-11-09T13:25:36.598Z,991.20
2022-11-09T13:26:36.580Z,991.27
2022-11-09T13:28:36.555Z,991.21
2022-11-09T13:29:36.546Z,991.25
2022-11-09T13:30:36.539Z,991.28
2022-11-09T13:31:36.521Z,991.29
2022-11-09T13:32:36.503Z,991.28
2022-11-09T13:33:36.492Z,991.28
2022-11-09T13:34:36.480Z,991.24
2022-11-09T13:35:36.466Z,991.29
2022-11-09T13:36:36.454Z,991.23
2022-11-09T13:37:36.445Z,991.27
2022-11-09T13:39:36.415Z,991.26
2022-11-09T13:40:36.424Z,991.29
2022-11-09T13:42:36.378Z,991.26
2022-11-09T13:43:36.361Z,991.37
2022-11-09T13:44:38.840Z,991.34